createdAt,value
2023-08-11T00:00:09.777Z,89.94
2023-08-11T00:02:39.217Z,89.94
2023-08-11T00:05:07.305Z,89.96
2023-08-11T00:07:34.549Z,89.27
2023-08-11T00:10:01.827Z,89.87
2023-08-11T00:12:28.861Z,90.39
2023-08-11T00:14:55.959Z,89.96
2023-08-11T00:17:22.961Z,90.86
2023-08-11T00:19:49.846Z,90.68
2023-08-11T00:22:16.625Z,90.74
2023-08-11T00:24:43.557Z,89.90
2023-08-11T00:27:10.745Z,90.21
2023-08-11T00:29:37.737Z,89.26
2023-08-11T00:32:05.152Z,88.82
2023-08-11T00:34:32.299Z,88.25
2023-08-11T00:36:59.179Z,87.77
2023-08-11T00:39:26.148Z,87.25
2023-08-11T00:41:52.972Z,87.22
2023-08-11T00:44:19.893Z,88.48
2023-08-11T00:46:47.351Z,88.56
2023-08-11T00:49:15.417Z,88.29
2023-08-11T00:51:43.297Z,88.21
2023-08-11T00:54:12.090Z,88.26
2023-08-11T00:56:45.430Z,88.24
2023-08-11T00:59:22.849Z,87.60
2023-08-11T01:01:50.257Z,87.81
2023-08-11T01:04:17.318Z,87.22
2023-08-11T01:06:48.137Z,87.38
2023-08-11T01:09:39.593Z,86.52
2023-08-11T01:12:24.892Z,87.27
2023-08-11T01:15:11.680Z,86.58
2023-08-11T01:17:42.273Z,86.36
2023-08-11T01:20:17.296Z,86.63
2023-08-11T01:22:55.289Z,86.62
2023-08-11T01:25:22.496Z,86.76
2023-08-11T01:28:05.274Z,86.09
2023-08-11T01:30:35.775Z,85.48
2023-08-11T01:33:02.692Z,86.33
2023-08-11T01:35:40.468Z,86.14
2023-08-11T01:38:10.689Z,85.96
2023-08-11T01:40:39.515Z,85.88
2023-08-11T01:43:08.819Z,86.27
2023-08-11T01:45:35.655Z,85.15
2023-08-11T01:48:03.890Z,84.74
2023-08-11T01:50:31.834Z,85.18
2023-08-11T01:52:58.936Z,85.01
2023-08-11T01:55:27.666Z,85.20
2023-08-11T01:57:59.060Z,83.89
2023-08-11T02:00:28.760Z,83.59
2023-08-11T02:02:57.804Z,83.37
2023-08-11T02:05:26.511Z,83.02
2023-08-11T02:07:54.839Z,83.15
2023-08-11T02:10:21.993Z,83.27
2023-08-11T02:12:49.472Z,82.76
2023-08-11T02:15:16.448Z,82.90
2023-08-11T02:17:43.766Z,81.91
2023-08-11T02:20:22.277Z,80.71
2023-08-11T02:22:50.458Z,80.77
2023-08-11T02:25:17.484Z,80.59
2023-08-11T02:27:45.219Z,80.59
2023-08-11T02:30:13.472Z,80.38
2023-08-11T02:32:42.591Z,80.39
2023-08-11T02:35:11.910Z,80.16
2023-08-11T02:37:39.024Z,80.07
2023-08-11T02:40:10.475Z,80.30
2023-08-11T02:42:46.872Z,80.27
2023-08-11T02:45:13.665Z,80.63
2023-08-11T02:47:40.879Z,80.32
2023-08-11T02:50:09.844Z,80.51
2023-08-11T02:52:37.654Z,80.13
2023-08-11T02:55:06.540Z,79.68
2023-08-11T02:57:34.307Z,79.88
2023-08-11T03:00:01.883Z,79.41
2023-08-11T03:02:28.997Z,78.97
2023-08-11T03:04:55.897Z,78.55
2023-08-11T03:07:22.737Z,78.48
2023-08-11T03:09:49.677Z,78.25
2023-08-11T03:12:16.800Z,78.70
2023-08-11T03:14:43.675Z,78.19
2023-08-11T03:17:11.651Z,78.39
2023-08-11T03:19:38.695Z,77.43
2023-08-11T03:22:05.783Z,77.58
2023-08-11T03:24:33.021Z,77.39
2023-08-11T03:27:00.020Z,77.67
2023-08-11T03:29:26.930Z,78.14
2023-08-11T03:31:54.132Z,77.99
2023-08-11T03:34:21.054Z,77.57
2023-08-11T03:36:47.820Z,77.84
2023-08-11T03:39:14.657Z,78.04
2023-08-11T03:41:41.420Z,77.89
2023-08-11T03:44:08.313Z,77.90
2023-08-11T03:46:35.679Z,78.02
2023-08-11T03:49:04.723Z,77.50
2023-08-11T03:51:31.617Z,77.73
2023-08-11T03:54:01.957Z,78.11
2023-08-11T03:56:29.904Z,78.17
2023-08-11T03:58:57.013Z,77.57
2023-08-11T04:01:24.086Z,77.23
2023-08-11T04:03:51.108Z,77.31
2023-08-11T04:06:17.849Z,76.91
2023-08-11T04:08:45.431Z,76.62
2023-08-11T04:11:12.672Z,76.54
2023-08-11T04:13:39.456Z,76.60
2023-08-11T04:16:06.308Z,77.08
2023-08-11T04:18:33.211Z,76.29
2023-08-11T04:21:00.215Z,76.71
2023-08-11T04:23:27.196Z,76.53
2023-08-11T04:25:54.265Z,76.24
2023-08-11T04:28:21.125Z,76.55
2023-08-11T04:30:47.903Z,76.39
2023-08-11T04:33:14.820Z,77.08
2023-08-11T04:35:41.849Z,76.36
2023-08-11T04:38:08.990Z,76.10
2023-08-11T04:40:35.812Z,76.34
2023-08-11T04:43:03.142Z,76.52
2023-08-11T04:45:30.112Z,76.34
2023-08-11T04:47:57.137Z,76.26
2023-08-11T04:50:24.355Z,76.48
2023-08-11T04:52:51.438Z,76.01
2023-08-11T04:55:18.854Z,75.41
2023-08-11T04:57:45.675Z,75.63
2023-08-11T05:00:17.650Z,75.66
2023-08-11T05:02:45.715Z,76.00
2023-08-11T05:05:13.084Z,75.96
2023-08-11T05:07:41.461Z,75.82
2023-08-11T05:10:09.014Z,75.69
2023-08-11T05:12:36.124Z,76.21
2023-08-11T05:15:04.883Z,75.67
2023-08-11T05:17:32.785Z,75.34
2023-08-11T05:19:59.964Z,75.24
2023-08-11T05:22:27.065Z,75.01
2023-08-11T05:24:54.144Z,74.43
2023-08-11T05:27:21.186Z,74.63
2023-08-11T05:29:49.497Z,75.12
2023-08-11T05:32:16.763Z,74.78
2023-08-11T05:34:43.817Z,74.79
2023-08-11T05:37:11.351Z,74.80
2023-08-11T05:39:42.100Z,74.57
2023-08-11T05:42:09.182Z,75.06
2023-08-11T05:44:36.556Z,73.95
2023-08-11T05:47:03.987Z,73.93
2023-08-11T05:49:30.832Z,74.79
2023-08-11T05:51:57.822Z,74.23
2023-08-11T05:54:24.750Z,74.80
2023-08-11T05:56:54.318Z,74.71
2023-08-11T05:59:24.810Z,73.93
2023-08-11T06:01:52.111Z,74.57
2023-08-11T06:04:19.148Z,74.20
2023-08-11T06:06:46.012Z,73.92
2023-08-11T06:09:12.887Z,74.01
2023-08-11T06:11:39.791Z,73.76
2023-08-11T06:14:06.643Z,73.96
2023-08-11T06:16:33.603Z,73.51
2023-08-11T06:19:00.400Z,72.89
2023-08-11T06:21:27.432Z,72.24
2023-08-11T06:23:54.732Z,72.61
2023-08-11T06:26:22.014Z,72.29
2023-08-11T06:28:49.869Z,71.58
2023-08-11T06:31:20.302Z,71.62
2023-08-11T06:33:47.738Z,71.41
2023-08-11T06:36:14.479Z,71.55
2023-08-11T06:38:42.089Z,71.19
2023-08-11T06:41:09.104Z,70.43
2023-08-11T06:43:35.887Z,69.93
2023-08-11T06:46:02.906Z,70.28
2023-08-11T06:48:29.804Z,69.67
2023-08-11T06:50:59.552Z,69.90
2023-08-11T06:53:26.525Z,69.16
2023-08-11T06:55:53.786Z,68.16
2023-08-11T06:58:22.169Z,69.07
2023-08-11T07:00:50.324Z,69.45
2023-08-11T07:03:17.354Z,69.15
2023-08-11T07:05:44.253Z,69.83
2023-08-11T07:08:11.277Z,70.60
2023-08-11T07:10:38.126Z,70.19
2023-08-11T07:13:04.865Z,70.13
2023-08-11T07:15:31.862Z,69.50
2023-08-11T07:17:58.791Z,70.58
2023-08-11T07:20:25.755Z,71.26
2023-08-11T07:22:52.953Z,71.56
2023-08-11T07:25:19.931Z,69.86
2023-08-11T07:27:46.765Z,70.16
2023-08-11T07:30:13.659Z,69.79
2023-08-11T07:32:40.582Z,69.90
2023-08-11T07:35:07.895Z,69.37
2023-08-11T07:37:34.924Z,69.15
2023-08-11T07:40:01.934Z,68.75
2023-08-11T07:42:28.655Z,69.46
2023-08-11T07:44:55.529Z,69.60
2023-08-11T07:47:22.565Z,68.69
2023-08-11T07:49:52.365Z,68.41
2023-08-11T07:52:19.250Z,68.31
2023-08-11T07:54:46.262Z,68.12
2023-08-11T07:57:13.192Z,66.83
2023-08-11T07:59:40.160Z,66.17
2023-08-11T08:02:08.791Z,65.40
2023-08-11T08:04:35.580Z,65.44
2023-08-11T08:07:02.638Z,65.61
2023-08-11T08:09:30.088Z,65.44
2023-08-11T08:11:56.907Z,64.75
2023-08-11T08:14:23.676Z,64.41
2023-08-11T08:16:50.516Z,63.78
2023-08-11T08:19:18.362Z,62.83
2023-08-11T08:21:45.343Z,63.13
2023-08-11T08:24:12.687Z,62.85
2023-08-11T08:26:39.559Z,61.76
2023-08-11T08:29:06.560Z,61.34
2023-08-11T08:31:33.919Z,60.33
2023-08-11T08:34:01.348Z,59.49
2023-08-11T08:36:28.494Z,59.49
2023-08-11T08:38:55.445Z,59.90
2023-08-11T08:41:29.238Z,59.60
2023-08-11T08:43:57.333Z,58.12
2023-08-11T08:46:29.906Z,56.74
2023-08-11T08:49:31.161Z,55.88
2023-08-11T08:51:58.704Z,55.60
2023-08-11T08:54:25.729Z,54.86
2023-08-11T08:56:53.717Z,54.79
2023-08-11T08:59:21.116Z,54.61
2023-08-11T09:01:48.561Z,55.05
2023-08-11T09:04:17.051Z,52.91
2023-08-11T09:06:45.327Z,53.03
2023-08-11T09:09:14.129Z,51.22
2023-08-11T09:11:40.959Z,50.34
2023-08-11T09:14:09.101Z,49.97
2023-08-11T09:16:39.847Z,49.88
2023-08-11T09:19:11.511Z,48.88
2023-08-11T09:21:39.057Z,49.14
2023-08-11T09:24:10.494Z,49.13
2023-08-11T09:26:37.347Z,50.71
2023-08-11T09:29:05.536Z,49.92
2023-08-11T09:31:32.415Z,49.77
2023-08-11T09:34:15.904Z,50.79
2023-08-11T09:36:46.465Z,48.66
2023-08-11T09:39:13.549Z,49.50
2023-08-11T09:41:42.342Z,48.03
2023-08-11T09:44:10.092Z,46.37
2023-08-11T09:46:38.883Z,44.81
2023-08-11T09:49:07.200Z,44.71
2023-08-11T09:51:39.870Z,43.98
2023-08-11T09:54:09.486Z,44.11
2023-08-11T09:56:42.001Z,45.48
2023-08-11T09:59:19.550Z,45.18
2023-08-11T10:01:47.596Z,44.82
2023-08-11T10:04:22.503Z,43.46
2023-08-11T10:06:52.960Z,41.32
2023-08-11T10:09:23.812Z,38.46
2023-08-11T10:11:52.503Z,35.79
2023-08-11T10:14:22.429Z,33.28
2023-08-11T10:16:49.378Z,29.62
2023-08-11T10:19:16.616Z,29.61
2023-08-11T10:21:43.693Z,27.29
2023-08-11T10:24:11.705Z,26.03
2023-08-11T10:26:39.183Z,27.78
2023-08-11T10:29:06.217Z,25.85
2023-08-11T10:31:34.454Z,26.20
2023-08-11T10:34:07.368Z,26.18
2023-08-11T10:36:34.752Z,27.73
2023-08-11T10:39:07.014Z,28.92
2023-08-11T10:41:35.147Z,27.70
2023-08-11T10:44:02.001Z,27.43
2023-08-11T10:46:33.214Z,25.05
2023-08-11T10:49:07.481Z,26.43
2023-08-11T10:51:35.317Z,27.38
2023-08-11T10:54:19.201Z,29.20
2023-08-11T10:56:47.074Z,30.77
2023-08-11T10:59:25.636Z,34.01
2023-08-11T11:01:56.809Z,36.96
2023-08-11T11:04:33.558Z,40.20
2023-08-11T11:07:02.159Z,41.70
2023-08-11T11:09:29.767Z,41.88
2023-08-11T11:11:57.937Z,42.64
2023-08-11T11:14:28.454Z,39.30
2023-08-11T11:17:00.301Z,39.35
2023-08-11T11:19:27.854Z,33.71
2023-08-11T11:21:54.869Z,31.89
2023-08-11T11:24:21.741Z,27.96
2023-08-11T11:26:49.277Z,28.01
2023-08-11T11:29:16.290Z,28.67
2023-08-11T11:31:43.598Z,28.73
2023-08-11T11:34:10.702Z,28.69
2023-08-11T11:36:38.363Z,27.03
2023-08-11T11:39:06.290Z,26.68
2023-08-11T11:41:33.424Z,28.36
2023-08-11T11:44:00.648Z,28.52
2023-08-11T11:46:29.997Z,27.85
2023-08-11T11:48:57.401Z,29.54
2023-08-11T11:51:26.866Z,31.75
2023-08-11T11:53:56.328Z,34.89
2023-08-11T11:56:23.517Z,30.79
2023-08-11T11:58:51.105Z,29.50
2023-08-11T12:01:22.706Z,30.36
2023-08-11T12:03:51.840Z,34.24
2023-08-11T12:06:20.384Z,35.39
2023-08-11T12:08:50.585Z,35.92
2023-08-11T12:11:26.967Z,33.32
2023-08-11T12:13:54.170Z,31.11
2023-08-11T12:16:21.476Z,31.03
2023-08-11T12:18:48.914Z,29.98
2023-08-11T12:21:18.659Z,28.77
2023-08-11T12:23:45.607Z,30.20
2023-08-11T12:26:12.537Z,36.33
2023-08-11T12:28:40.656Z,35.40
2023-08-11T12:31:09.851Z,37.27
2023-08-11T12:33:39.807Z,36.34
2023-08-11T12:36:06.939Z,39.64
2023-08-11T12:38:34.746Z,37.94
2023-08-11T12:41:01.552Z,37.96
2023-08-11T12:43:28.384Z,42.31
2023-08-11T12:45:55.293Z,41.75
2023-08-11T12:48:22.544Z,43.04
2023-08-11T12:50:49.570Z,44.15
2023-08-11T12:53:16.342Z,43.95
2023-08-11T12:55:43.299Z,46.02
2023-08-11T12:58:10.220Z,45.70
2023-08-11T13:00:37.627Z,42.63
2023-08-11T13:03:05.453Z,44.88
2023-08-11T13:05:32.397Z,44.26
2023-08-11T13:07:59.455Z,44.25
2023-08-11T13:10:26.690Z,45.47
2023-08-11T13:12:53.610Z,42.42
2023-08-11T13:15:21.138Z,44.09
2023-08-11T13:17:48.133Z,44.33
2023-08-11T13:20:15.067Z,45.30
2023-08-11T13:22:42.528Z,47.00
2023-08-11T13:25:10.244Z,43.54
2023-08-11T13:27:38.461Z,44.23
2023-08-11T13:30:09.378Z,44.59
2023-08-11T13:32:36.738Z,43.96
2023-08-11T13:35:04.392Z,44.27
2023-08-11T13:37:31.165Z,44.58
2023-08-11T13:40:01.666Z,43.55
2023-08-11T13:42:29.048Z,45.78
2023-08-11T13:44:55.950Z,43.89
2023-08-11T13:47:23.081Z,44.77
2023-08-11T13:49:49.855Z,45.04
2023-08-11T13:52:17.021Z,44.92
2023-08-11T13:54:59.730Z,45.21
2023-08-11T13:57:27.108Z,43.90
2023-08-11T13:59:58.839Z,46.51
2023-08-11T14:02:28.014Z,45.89
2023-08-11T14:04:55.889Z,46.12
2023-08-11T14:07:31.723Z,45.33
2023-08-11T14:10:01.615Z,46.19
2023-08-11T14:12:28.639Z,44.47
2023-08-11T14:14:55.621Z,42.78
2023-08-11T14:17:22.560Z,43.74
2023-08-11T14:19:49.698Z,45.15
2023-08-11T14:22:16.588Z,44.40
2023-08-11T14:24:43.578Z,44.17
2023-08-11T14:27:10.526Z,44.70
2023-08-11T14:29:37.517Z,44.58
2023-08-11T14:32:18.848Z,45.18
2023-08-11T14:34:51.504Z,45.99
2023-08-11T14:37:18.614Z,45.66
2023-08-11T14:39:46.624Z,47.52
2023-08-11T14:42:15.250Z,45.90
2023-08-11T14:44:42.893Z,45.43
2023-08-11T14:47:14.967Z,45.65
2023-08-11T14:49:45.771Z,47.11
2023-08-11T14:52:14.484Z,46.35
2023-08-11T14:54:41.866Z,47.50
2023-08-11T14:57:11.305Z,46.55
2023-08-11T14:59:39.510Z,46.15
2023-08-11T15:02:06.396Z,47.43
2023-08-11T15:04:33.295Z,45.64
2023-08-11T15:07:00.293Z,45.87
2023-08-11T15:09:28.139Z,44.91
2023-08-11T15:11:54.945Z,47.68
2023-08-11T15:14:21.867Z,48.70
2023-08-11T15:16:48.724Z,46.65
2023-08-11T15:19:16.156Z,46.24
2023-08-11T15:21:43.380Z,46.46
2023-08-11T15:24:10.271Z,45.88
2023-08-11T15:26:39.465Z,45.61
2023-08-11T15:29:06.757Z,45.88
2023-08-11T15:31:33.735Z,45.93
2023-08-11T15:34:00.835Z,46.80
2023-08-11T15:36:27.763Z,46.42
2023-08-11T15:38:54.569Z,46.73
2023-08-11T15:41:21.394Z,47.02
2023-08-11T15:43:48.503Z,47.15
2023-08-11T15:46:15.596Z,47.02
2023-08-11T15:48:42.562Z,46.25
2023-08-11T15:51:09.659Z,47.44
2023-08-11T15:53:36.682Z,46.95
2023-08-11T15:56:04.419Z,46.09
2023-08-11T15:58:31.437Z,46.46
2023-08-11T16:00:59.460Z,48.14
2023-08-11T16:03:27.111Z,46.15
2023-08-11T16:05:54.387Z,47.32
2023-08-11T16:08:22.693Z,47.99
2023-08-11T16:10:49.635Z,47.37
2023-08-11T16:13:16.786Z,49.02
2023-08-11T16:15:43.801Z,48.02
2023-08-11T16:18:11.761Z,46.71
2023-08-11T16:20:38.898Z,47.37
2023-08-11T16:23:05.955Z,47.34
2023-08-11T16:25:33.067Z,47.06
2023-08-11T16:28:00.941Z,47.42
2023-08-11T16:30:27.969Z,47.00
2023-08-11T16:32:56.278Z,47.06
2023-08-11T16:35:23.921Z,47.50
2023-08-11T16:37:51.185Z,49.04
2023-08-11T16:40:18.295Z,48.67
2023-08-11T16:42:45.192Z,48.96
2023-08-11T16:45:12.075Z,48.76
2023-08-11T16:47:39.056Z,49.24
2023-08-11T16:50:06.568Z,48.86
2023-08-11T16:52:33.328Z,50.24
2023-08-11T16:55:00.321Z,49.20
2023-08-11T16:57:27.233Z,49.13
2023-08-11T16:59:54.603Z,49.82
2023-08-11T17:02:21.519Z,50.69
2023-08-11T17:04:48.854Z,50.99
2023-08-11T17:07:15.776Z,51.09
2023-08-11T17:09:42.660Z,51.66
2023-08-11T17:12:10.933Z,51.78
2023-08-11T17:14:38.208Z,52.08
2023-08-11T17:17:05.141Z,52.89
2023-08-11T17:19:32.973Z,53.53
2023-08-11T17:21:59.964Z,53.69
2023-08-11T17:24:26.895Z,54.17
2023-08-11T17:26:53.879Z,54.08
2023-08-11T17:29:20.974Z,53.59
2023-08-11T17:31:48.039Z,55.31
2023-08-11T17:34:15.034Z,55.71
2023-08-11T17:36:41.917Z,55.47
2023-08-11T17:39:08.790Z,55.46
2023-08-11T17:41:35.740Z,55.78
2023-08-11T17:44:02.617Z,56.17
2023-08-11T17:46:29.687Z,57.40
2023-08-11T17:48:56.908Z,58.26
2023-08-11T17:51:25.323Z,58.14
2023-08-11T17:54:03.706Z,58.89
2023-08-11T17:56:37.208Z,60.22
2023-08-11T17:59:04.283Z,61.75
2023-08-11T18:01:32.984Z,62.95
2023-08-11T18:04:05.052Z,63.04
2023-08-11T18:06:34.850Z,63.23
2023-08-11T18:09:02.173Z,63.55
2023-08-11T18:11:29.624Z,63.85
2023-08-11T18:13:57.291Z,65.21
2023-08-11T18:16:24.635Z,65.94
2023-08-11T18:18:51.448Z,66.96
2023-08-11T18:21:20.856Z,67.46
2023-08-11T18:23:48.665Z,66.85
2023-08-11T18:26:17.385Z,67.33
2023-08-11T18:28:44.472Z,67.56
2023-08-11T18:31:11.488Z,68.29
2023-08-11T18:33:38.597Z,68.74
2023-08-11T18:36:05.667Z,68.64
2023-08-11T18:38:32.524Z,69.08
2023-08-11T18:40:59.442Z,69.56
2023-08-11T18:43:27.957Z,70.00
2023-08-11T18:45:54.879Z,70.07
2023-08-11T18:48:22.193Z,70.67
2023-08-11T18:50:49.377Z,71.03
2023-08-11T18:53:16.480Z,71.57
2023-08-11T18:55:43.792Z,72.32
2023-08-11T18:58:10.792Z,72.80
2023-08-11T19:00:39.498Z,72.82
2023-08-11T19:03:06.510Z,73.20
2023-08-11T19:05:35.263Z,72.99
2023-08-11T19:08:03.357Z,73.66
2023-08-11T19:10:30.292Z,73.86
2023-08-11T19:12:57.508Z,73.67
2023-08-11T19:15:24.409Z,73.58
2023-08-11T19:17:51.307Z,73.49
2023-08-11T19:20:18.551Z,73.51
2023-08-11T19:22:45.506Z,73.71
2023-08-11T19:25:12.889Z,74.33
2023-08-11T19:27:40.117Z,74.23
2023-08-11T19:30:08.182Z,74.33
2023-08-11T19:32:36.228Z,74.54
2023-08-11T19:35:03.692Z,75.13
2023-08-11T19:37:30.842Z,75.48
2023-08-11T19:39:57.844Z,75.43
2023-08-11T19:42:24.880Z,74.99
2023-08-11T19:44:51.925Z,75.44
2023-08-11T19:47:18.953Z,75.49
2023-08-11T19:49:45.999Z,76.13
2023-08-11T19:52:13.438Z,75.91
2023-08-11T19:54:40.703Z,76.18
2023-08-11T19:57:07.702Z,76.21
2023-08-11T19:59:35.029Z,76.10
2023-08-11T20:02:01.959Z,75.82
2023-08-11T20:04:28.856Z,76.10
2023-08-11T20:06:56.185Z,76.22
2023-08-11T20:09:25.773Z,76.69
2023-08-11T20:11:53.029Z,76.20
2023-08-11T20:14:20.125Z,76.42
2023-08-11T20:16:47.684Z,76.34
2023-08-11T20:19:14.435Z,75.95
2023-08-11T20:21:42.797Z,75.71
2023-08-11T20:24:10.962Z,75.44
2023-08-11T20:26:37.848Z,75.75
2023-08-11T20:29:05.163Z,75.88
2023-08-11T20:31:34.317Z,76.21
2023-08-11T20:34:01.568Z,76.20
2023-08-11T20:36:28.858Z,76.35
2023-08-11T20:38:56.256Z,76.52
2023-08-11T20:41:23.206Z,76.65
2023-08-11T20:43:50.325Z,76.61
2023-08-11T20:46:17.457Z,77.26
2023-08-11T20:48:44.503Z,77.70
2023-08-11T20:51:13.088Z,78.00
2023-08-11T20:53:40.225Z,78.39
2023-08-11T20:56:09.366Z,78.73
2023-08-11T20:58:36.877Z,79.13
2023-08-11T21:01:04.166Z,79.46
2023-08-11T21:03:31.314Z,79.89
2023-08-11T21:05:58.378Z,80.27
2023-08-11T21:08:25.272Z,80.55
2023-08-11T21:10:52.458Z,80.68
2023-08-11T21:13:19.351Z,81.09
2023-08-11T21:15:46.244Z,81.13
2023-08-11T21:18:13.513Z,81.37
2023-08-11T21:20:40.469Z,81.83
2023-08-11T21:23:07.889Z,81.77
2023-08-11T21:25:35.598Z,81.64
2023-08-11T21:28:02.589Z,82.29
2023-08-11T21:30:29.516Z,82.58
2023-08-11T21:32:56.906Z,82.50
2023-08-11T21:35:23.962Z,83.05
2023-08-11T21:37:50.710Z,82.89
2023-08-11T21:40:18.090Z,83.70
2023-08-11T21:42:46.072Z,84.09
2023-08-11T21:45:13.022Z,84.32
2023-08-11T21:47:40.084Z,84.86
2023-08-11T21:50:08.436Z,84.90
2023-08-11T21:52:35.701Z,85.03
2023-08-11T21:55:04.491Z,85.41
2023-08-11T21:57:32.653Z,85.84
2023-08-11T22:00:00.622Z,85.89
2023-08-11T22:02:27.781Z,85.76
2023-08-11T22:04:54.788Z,85.67
2023-08-11T22:07:21.688Z,85.79
2023-08-11T22:09:48.565Z,86.07
2023-08-11T22:12:15.490Z,85.70
2023-08-11T22:14:42.574Z,86.00
2023-08-11T22:17:11.499Z,85.63
2023-08-11T22:19:41.154Z,85.72
2023-08-11T22:22:08.711Z,85.68
2023-08-11T22:24:41.054Z,85.46
2023-08-11T22:27:12.242Z,85.63
2023-08-11T22:29:39.679Z,85.43
2023-08-11T22:32:06.748Z,85.66
2023-08-11T22:34:33.828Z,85.26
2023-08-11T22:37:00.761Z,84.66
2023-08-11T22:39:27.826Z,84.26
2023-08-11T22:41:54.847Z,84.05
2023-08-11T22:44:21.774Z,83.36
2023-08-11T22:46:48.601Z,83.34
2023-08-11T22:49:15.622Z,82.17
2023-08-11T22:51:42.717Z,81.99
2023-08-11T22:54:09.885Z,81.26
2023-08-11T22:56:36.665Z,81.31
2023-08-11T22:59:04.001Z,80.66
2023-08-11T23:01:31.057Z,80.31
2023-08-11T23:03:58.036Z,80.47
2023-08-11T23:06:25.389Z,80.17
2023-08-11T23:08:52.716Z,79.83
2023-08-11T23:11:19.564Z,80.09
2023-08-11T23:13:46.854Z,80.07
2023-08-11T23:16:14.160Z,80.05
2023-08-11T23:18:41.186Z,80.06
2023-08-11T23:21:08.123Z,80.15
2023-08-11T23:23:35.124Z,80.56
2023-08-11T23:26:02.007Z,80.58
2023-08-11T23:28:29.542Z,80.10
2023-08-11T23:30:56.593Z,80.25
2023-08-11T23:33:23.643Z,80.55
2023-08-11T23:35:50.610Z,80.39
2023-08-11T23:38:17.359Z,80.29
2023-08-11T23:40:44.458Z,80.30
2023-08-11T23:43:11.552Z,80.51
2023-08-11T23:45:38.549Z,79.96
2023-08-11T23:48:07.415Z,80.17
2023-08-11T23:50:34.865Z,80.39
2023-08-11T23:53:02.240Z,79.78
2023-08-11T23:55:29.328Z,79.97
2023-08-11T23:57:56.553Z,80.24
